createdAt,value
2022-10-20T00:01:28.168Z,8.70
2022-10-20T00:03:56.869Z,8.70
2022-10-20T00:06:30.577Z,8.70
2022-10-20T00:09:00.966Z,8.69
2022-10-20T00:11:30.207Z,8.68
2022-10-20T00:14:00.057Z,8.68
2022-10-20T00:16:30.600Z,8.69
2022-10-20T00:18:58.840Z,8.66
2022-10-20T00:21:28.109Z,8.63
2022-10-20T00:23:55.673Z,8.60
2022-10-20T00:26:26.468Z,8.61
2022-10-20T00:28:55.467Z,8.59
2022-10-20T00:31:24.710Z,8.58
2022-10-20T00:33:52.933Z,8.59
2022-10-20T00:36:23.108Z,8.59
2022-10-20T00:38:51.969Z,8.57
2022-10-20T00:41:21.502Z,8.54
2022-10-20T00:43:57.724Z,8.53
2022-10-20T00:46:40.999Z,8.50
2022-10-20T00:49:17.711Z,8.48
2022-10-20T00:51:45.159Z,8.46
2022-10-20T00:54:23.547Z,8.49
2022-10-20T00:56:53.466Z,8.46
2022-10-20T00:59:28.091Z,8.44
2022-10-20T01:01:58.254Z,8.45
2022-10-20T01:04:30.484Z,8.45
2022-10-20T01:06:58.689Z,8.43
2022-10-20T01:09:26.743Z,8.40
2022-10-20T01:12:12.181Z,8.38
2022-10-20T01:14:57.485Z,8.36
2022-10-20T01:18:08.608Z,8.34
2022-10-20T01:21:07.485Z,8.32
2022-10-20T01:24:11.688Z,8.29
2022-10-20T01:27:34.778Z,8.26
2022-10-20T01:30:21.167Z,8.26
2022-10-20T01:33:11.359Z,8.22
2022-10-20T01:35:53.221Z,8.20
2022-10-20T01:38:59.438Z,8.15
2022-10-20T01:41:38.601Z,8.17
2022-10-20T01:44:11.921Z,8.19
2022-10-20T01:46:43.260Z,8.18
2022-10-20T01:49:14.325Z,8.17
2022-10-20T01:51:43.096Z,8.15
2022-10-20T01:54:26.323Z,8.14
2022-10-20T01:57:32.205Z,8.16
2022-10-20T02:00:09.622Z,8.16
2022-10-20T02:03:19.672Z,8.19
2022-10-20T02:06:02.957Z,8.15
2022-10-20T02:08:46.452Z,8.18
2022-10-20T02:11:30.333Z,8.18
2022-10-20T02:13:59.800Z,8.19
2022-10-20T02:16:35.864Z,8.20
2022-10-20T02:19:07.605Z,8.20
2022-10-20T02:21:34.861Z,8.18
2022-10-20T02:24:08.385Z,8.20
2022-10-20T02:26:39.987Z,8.24
2022-10-20T02:29:24.914Z,8.28
2022-10-20T02:31:52.332Z,8.29
2022-10-20T02:34:19.779Z,8.33
2022-10-20T02:36:47.663Z,8.37
2022-10-20T02:39:15.039Z,8.38
2022-10-20T02:41:42.440Z,8.41
2022-10-20T02:44:09.800Z,8.43
2022-10-20T02:46:37.187Z,8.43
2022-10-20T02:49:04.560Z,8.46
2022-10-20T02:51:31.914Z,8.48
2022-10-20T02:53:59.298Z,8.50
2022-10-20T02:56:28.902Z,8.52
2022-10-20T02:58:58.359Z,8.49
2022-10-20T03:01:25.708Z,8.51
2022-10-20T03:03:58.535Z,8.53
2022-10-20T03:06:26.616Z,8.53
2022-10-20T03:08:54.054Z,8.53
2022-10-20T03:11:21.441Z,8.52
2022-10-20T03:13:49.184Z,8.50
2022-10-20T03:16:16.560Z,8.48
2022-10-20T03:18:43.968Z,8.50
2022-10-20T03:21:11.608Z,8.50
2022-10-20T03:23:40.141Z,8.50
2022-10-20T03:26:11.179Z,8.52
2022-10-20T03:28:40.306Z,8.51
2022-10-20T03:31:08.757Z,8.52
2022-10-20T03:33:36.210Z,8.54
2022-10-20T03:36:04.666Z,8.58
2022-10-20T03:38:32.189Z,8.60
2022-10-20T03:40:59.572Z,8.61
2022-10-20T03:43:26.939Z,8.63
2022-10-20T03:46:10.295Z,8.67
2022-10-20T03:48:39.957Z,8.68
2022-10-20T03:51:09.209Z,8.68
2022-10-20T03:53:36.541Z,8.70
2022-10-20T03:56:07.262Z,8.72
2022-10-20T03:58:35.526Z,8.71
2022-10-20T04:01:06.286Z,8.73
2022-10-20T04:03:33.631Z,8.74
2022-10-20T04:06:01.088Z,8.75
2022-10-20T04:08:28.483Z,8.77
2022-10-20T04:10:55.871Z,8.80
2022-10-20T04:13:23.230Z,8.82
2022-10-20T04:15:50.592Z,8.84
2022-10-20T04:18:17.957Z,8.86
2022-10-20T04:20:45.305Z,8.89
2022-10-20T04:23:12.739Z,8.91
2022-10-20T04:25:47.485Z,8.94
2022-10-20T04:28:17.004Z,8.96
2022-10-20T04:30:45.354Z,8.98
2022-10-20T04:33:13.589Z,9.00
2022-10-20T04:35:41.654Z,9.02
2022-10-20T04:38:09.088Z,9.04
2022-10-20T04:40:36.598Z,9.05
2022-10-20T04:43:03.992Z,9.09
2022-10-20T04:45:33.415Z,9.10
2022-10-20T04:48:02.162Z,9.12
2022-10-20T04:50:29.539Z,9.13
2022-10-20T04:53:08.907Z,9.14
2022-10-20T04:55:36.352Z,9.14
2022-10-20T04:58:03.700Z,9.15
2022-10-20T05:00:31.077Z,9.17
2022-10-20T05:02:58.496Z,9.18
2022-10-20T05:05:25.860Z,9.21
2022-10-20T05:07:53.182Z,9.22
2022-10-20T05:10:20.848Z,9.24
2022-10-20T05:12:48.198Z,9.25
2022-10-20T05:15:15.978Z,9.29
2022-10-20T05:17:45.925Z,9.30
2022-10-20T05:20:13.374Z,9.32
2022-10-20T05:22:40.815Z,9.33
2022-10-20T05:25:31.228Z,9.36
2022-10-20T05:27:56.101Z,9.37
2022-10-20T05:30:23.457Z,9.39
2022-10-20T05:32:50.786Z,9.41
2022-10-20T05:35:18.252Z,9.42
2022-10-20T05:37:46.580Z,9.44
2022-10-20T05:40:13.989Z,9.48
2022-10-20T05:42:41.337Z,9.52
2022-10-20T05:45:09.477Z,9.55
2022-10-20T05:47:36.868Z,9.57
2022-10-20T05:50:04.837Z,9.57
2022-10-20T05:52:32.186Z,9.55
2022-10-20T05:55:00.327Z,9.55
2022-10-20T05:57:27.754Z,9.58
2022-10-20T05:59:55.176Z,9.61
2022-10-20T06:02:22.523Z,9.66
2022-10-20T06:04:49.885Z,9.70
2022-10-20T06:07:17.216Z,9.73
2022-10-20T06:09:44.641Z,9.76
2022-10-20T06:12:12.023Z,9.79
2022-10-20T06:14:39.411Z,9.82
2022-10-20T06:17:06.754Z,9.85
2022-10-20T06:19:34.080Z,9.90
2022-10-20T06:22:05.452Z,9.93
2022-10-20T06:24:34.757Z,9.96
2022-10-20T06:27:02.137Z,10.00
2022-10-20T06:29:29.480Z,10.05
2022-10-20T06:31:56.918Z,10.12
2022-10-20T06:34:25.924Z,10.18
2022-10-20T06:36:53.660Z,10.23
2022-10-20T06:39:23.820Z,10.30
2022-10-20T06:41:54.169Z,10.35
2022-10-20T06:44:24.170Z,10.42
2022-10-20T06:46:55.069Z,10.49
2022-10-20T06:49:23.543Z,10.58
2022-10-20T06:51:50.919Z,10.65
2022-10-20T06:54:18.638Z,10.72
2022-10-20T06:56:46.067Z,10.78
2022-10-20T06:59:13.431Z,10.84
2022-10-20T07:01:41.307Z,10.90
2022-10-20T07:04:14.819Z,10.95
2022-10-20T07:06:45.067Z,10.98
2022-10-20T07:09:18.120Z,11.02
2022-10-20T07:11:45.957Z,11.07
2022-10-20T07:14:14.174Z,11.12
2022-10-20T07:16:41.814Z,11.18
2022-10-20T07:19:09.718Z,11.23
2022-10-20T07:21:40.179Z,11.26
2022-10-20T07:24:09.875Z,11.31
2022-10-20T07:26:40.983Z,11.35
2022-10-20T07:29:09.882Z,11.37
2022-10-20T07:31:46.780Z,11.40
2022-10-20T07:34:25.735Z,11.44
2022-10-20T07:36:56.400Z,11.50
2022-10-20T07:39:24.363Z,11.51
2022-10-20T07:41:52.073Z,11.54
2022-10-20T07:44:19.919Z,11.58
2022-10-20T07:46:47.351Z,11.62
2022-10-20T07:52:02.303Z,11.70
2022-10-20T07:54:30.517Z,11.75
2022-10-20T07:56:57.915Z,11.80
2022-10-20T07:59:25.841Z,11.85
2022-10-20T08:01:56.154Z,11.89
2022-10-20T08:04:26.102Z,11.94
2022-10-20T08:06:53.555Z,11.97
2022-10-20T08:09:20.905Z,12.02
2022-10-20T08:11:51.447Z,12.07
2022-10-20T08:14:21.923Z,12.12
2022-10-20T08:16:53.512Z,12.15
2022-10-20T08:19:30.332Z,12.18
2022-10-20T08:21:57.819Z,12.22
2022-10-20T08:24:25.308Z,12.26
2022-10-20T08:26:52.713Z,12.29
2022-10-20T08:29:20.081Z,12.34
2022-10-20T08:31:47.416Z,12.38
2022-10-20T08:34:14.778Z,12.42
2022-10-20T08:36:42.184Z,12.48
2022-10-20T08:39:09.873Z,12.54
2022-10-20T08:42:06.267Z,12.61
2022-10-20T08:44:34.876Z,12.66
2022-10-20T08:47:05.764Z,12.68
2022-10-20T08:49:35.284Z,12.76
2022-10-20T08:52:03.965Z,12.83
2022-10-20T08:54:34.476Z,12.92
2022-10-20T08:57:01.906Z,13.01
2022-10-20T08:59:39.232Z,13.08
2022-10-20T09:02:16.717Z,13.15
2022-10-20T09:04:52.222Z,13.20
2022-10-20T09:07:28.388Z,13.23
2022-10-20T09:10:41.606Z,13.25
2022-10-20T09:13:25.437Z,13.27
2022-10-20T09:16:08.070Z,13.32
2022-10-20T09:18:35.564Z,13.37
2022-10-20T09:21:16.565Z,13.43
2022-10-20T09:23:49.319Z,13.50
2022-10-20T09:26:57.983Z,13.55
2022-10-20T09:29:38.747Z,13.58
2022-10-20T09:32:48.152Z,13.64
2022-10-20T09:35:20.800Z,13.68
2022-10-20T09:38:18.330Z,13.73
2022-10-20T09:41:20.109Z,13.75
2022-10-20T09:43:57.249Z,13.80
2022-10-20T09:46:37.258Z,13.85
2022-10-20T09:49:07.634Z,13.89
2022-10-20T09:51:35.225Z,13.93
2022-10-20T09:54:07.906Z,13.96
2022-10-20T09:56:42.612Z,14.01
2022-10-20T09:59:23.816Z,14.03
2022-10-20T10:02:29.178Z,14.07
2022-10-20T10:05:19.167Z,14.12
2022-10-20T10:07:59.163Z,14.16
2022-10-20T10:10:30.521Z,14.18
2022-10-20T10:13:01.389Z,14.20
2022-10-20T10:15:34.384Z,14.21
2022-10-20T10:18:21.656Z,14.21
2022-10-20T10:21:00.182Z,14.24
2022-10-20T10:23:31.824Z,14.23
2022-10-20T10:26:02.083Z,14.22
2022-10-20T10:28:40.216Z,14.23
2022-10-20T10:31:19.693Z,14.24
2022-10-20T10:33:50.001Z,14.24
2022-10-20T10:36:37.241Z,14.24
2022-10-20T10:39:11.899Z,14.22
2022-10-20T10:45:08.721Z,14.23
2022-10-20T10:48:06.139Z,14.23
2022-10-20T10:50:51.322Z,14.21
2022-10-20T10:53:45.642Z,14.20
2022-10-20T10:56:38.287Z,14.19
2022-10-20T10:59:32.820Z,14.20
2022-10-20T11:02:29.274Z,14.19
2022-10-20T11:05:27.545Z,14.19
2022-10-20T11:08:23.347Z,14.20
2022-10-20T11:11:19.852Z,14.20
2022-10-20T11:14:08.692Z,14.19
2022-10-20T11:17:26.453Z,14.21
2022-10-20T11:20:25.195Z,14.20
2022-10-20T11:23:31.215Z,14.20
2022-10-20T11:26:14.624Z,14.18
2022-10-20T11:28:54.238Z,14.16
2022-10-20T11:31:34.452Z,14.14
2022-10-20T11:34:36.043Z,14.11
2022-10-20T11:37:22.906Z,14.08
2022-10-20T11:40:27.156Z,14.06
2022-10-20T11:43:16.564Z,14.03
2022-10-20T11:46:14.685Z,14.02
2022-10-20T11:48:52.859Z,13.98
2022-10-20T11:51:29.479Z,13.96
2022-10-20T11:54:35.401Z,13.94
2022-10-20T11:57:45.866Z,13.93
2022-10-20T12:00:44.022Z,13.91
2022-10-20T12:03:48.328Z,13.89
2022-10-20T12:06:41.967Z,13.86
2022-10-20T12:09:40.309Z,13.84
2022-10-20T12:12:19.744Z,13.83
2022-10-20T12:14:57.704Z,13.85
2022-10-20T12:17:35.716Z,13.89
2022-10-20T12:20:21.123Z,13.94
2022-10-20T12:22:53.372Z,13.96
2022-10-20T12:25:26.420Z,14.03
2022-10-20T12:28:24.872Z,14.12
2022-10-20T12:31:05.078Z,14.17
2022-10-20T12:33:59.186Z,14.20
2022-10-20T12:36:34.376Z,14.24
2022-10-20T12:39:24.720Z,14.30
2022-10-20T12:42:05.160Z,14.33
2022-10-20T12:44:44.389Z,14.36
2022-10-20T12:47:27.443Z,14.41
2022-10-20T12:50:33.348Z,14.44
2022-10-20T12:53:15.966Z,14.49
2022-10-20T12:55:52.713Z,14.51
2022-10-20T12:58:19.961Z,14.53
2022-10-20T13:00:47.250Z,14.54
2022-10-20T13:03:49.705Z,14.54
2022-10-20T13:06:23.200Z,14.53
2022-10-20T13:09:02.955Z,14.54
2022-10-20T13:11:53.720Z,14.55
2022-10-20T13:14:50.952Z,14.56
2022-10-20T13:17:48.491Z,14.56
2022-10-20T13:20:28.013Z,14.58
2022-10-20T13:22:57.297Z,14.63
2022-10-20T13:25:48.630Z,14.78
2022-10-20T13:28:23.293Z,14.95
2022-10-20T13:30:59.511Z,15.09
2022-10-20T13:34:03.996Z,15.20
2022-10-20T13:36:46.822Z,15.32
2022-10-20T13:39:27.715Z,15.39
2022-10-20T13:42:03.349Z,15.50
2022-10-20T13:44:54.027Z,15.57
2022-10-20T13:47:49.977Z,15.60
2022-10-20T13:50:44.069Z,15.57
2022-10-20T13:53:26.124Z,15.56
2022-10-20T13:56:03.040Z,15.60
2022-10-20T13:58:30.907Z,15.64
2022-10-20T14:01:16.845Z,15.67
2022-10-20T14:03:47.011Z,15.72
2022-10-20T14:06:32.968Z,15.76
2022-10-20T14:09:16.553Z,15.81
2022-10-20T14:11:48.892Z,15.84
2022-10-20T14:14:22.433Z,15.90
2022-10-20T14:16:59.306Z,16.03
2022-10-20T14:19:29.083Z,16.15
2022-10-20T14:22:09.945Z,16.32
2022-10-20T14:24:44.192Z,16.46
2022-10-20T14:27:30.959Z,16.57
2022-10-20T14:29:59.949Z,16.63
2022-10-20T14:32:31.796Z,16.70
2022-10-20T14:35:18.744Z,16.77
2022-10-20T14:38:24.364Z,16.80
2022-10-20T14:40:58.107Z,16.83
2022-10-20T14:43:56.583Z,16.86
2022-10-20T14:46:33.397Z,16.86
2022-10-20T14:49:02.410Z,16.84
2022-10-20T14:51:33.733Z,16.84
2022-10-20T14:54:19.679Z,16.86
2022-10-20T14:56:50.881Z,16.86
2022-10-20T14:59:26.807Z,16.86
2022-10-20T15:02:16.925Z,16.84
2022-10-20T15:04:46.995Z,16.78
2022-10-20T15:07:28.020Z,16.75
2022-10-20T15:10:05.588Z,16.67
2022-10-20T15:12:36.042Z,16.64
2022-10-20T15:15:27.780Z,16.61
2022-10-20T15:18:04.276Z,16.54
2022-10-20T15:20:34.287Z,16.53
2022-10-20T15:23:23.339Z,16.52
2022-10-20T15:26:14.297Z,16.44
2022-10-20T15:28:51.713Z,16.37
2022-10-20T15:31:29.104Z,16.29
2022-10-20T15:33:58.113Z,16.26
2022-10-20T15:36:40.370Z,16.23
2022-10-20T15:39:10.083Z,16.17
2022-10-20T15:41:38.446Z,16.14
2022-10-20T15:44:19.310Z,16.12
2022-10-20T15:46:48.183Z,16.06
2022-10-20T15:49:16.536Z,16.02
2022-10-20T15:51:46.514Z,15.99
2022-10-20T15:54:18.037Z,15.96
2022-10-20T15:56:59.707Z,15.88
2022-10-20T15:59:30.878Z,15.82
2022-10-20T16:02:00.748Z,15.78
2022-10-20T16:04:28.479Z,15.75
2022-10-20T16:06:59.099Z,15.73
2022-10-20T16:09:29.319Z,15.68
2022-10-20T16:11:56.674Z,15.63
2022-10-20T16:14:24.049Z,15.58
2022-10-20T16:16:51.446Z,15.54
2022-10-20T16:19:18.841Z,15.50
2022-10-20T16:21:46.197Z,15.47
2022-10-20T16:24:13.546Z,15.43
2022-10-20T16:26:40.945Z,15.37
2022-10-20T16:29:08.286Z,15.32
2022-10-20T16:31:35.649Z,15.27
2022-10-20T16:34:03.204Z,15.22
2022-10-20T16:36:35.617Z,15.19
2022-10-20T16:39:03.356Z,15.13
2022-10-20T16:41:34.927Z,15.09
2022-10-20T16:44:02.180Z,15.00
2022-10-20T16:46:29.467Z,14.97
2022-10-20T16:48:57.194Z,14.95
2022-10-20T16:51:24.636Z,14.93
2022-10-20T16:53:57.320Z,14.89
2022-10-20T16:56:27.521Z,14.84
2022-10-20T16:58:55.738Z,14.83
2022-10-20T17:01:23.797Z,14.80
2022-10-20T17:03:53.132Z,14.77
2022-10-20T17:06:24.271Z,14.76
2022-10-20T17:08:53.302Z,14.71
2022-10-20T17:11:24.722Z,14.67
2022-10-20T17:13:53.428Z,14.64
2022-10-20T17:16:28.908Z,14.61
2022-10-20T17:18:59.529Z,14.59
2022-10-20T17:21:28.533Z,14.56
2022-10-20T17:23:56.413Z,14.54
2022-10-20T17:26:30.197Z,14.51
2022-10-20T17:29:00.911Z,14.46
2022-10-20T17:31:29.619Z,14.44
2022-10-20T17:33:58.898Z,14.40
2022-10-20T17:36:28.458Z,14.37
2022-10-20T17:39:05.008Z,14.34
2022-10-20T17:41:32.816Z,14.32
2022-10-20T17:44:02.833Z,14.29
2022-10-20T17:46:30.912Z,14.27
2022-10-20T17:48:58.271Z,14.24
2022-10-20T17:51:29.007Z,14.23
2022-10-20T17:54:02.213Z,14.21
2022-10-20T17:56:39.446Z,14.19
2022-10-20T17:59:08.600Z,14.15
2022-10-20T18:01:39.813Z,14.13
2022-10-20T18:04:12.181Z,14.10
2022-10-20T18:06:41.040Z,14.07
2022-10-20T18:09:15.533Z,14.07
2022-10-20T18:11:51.068Z,14.05
2022-10-20T18:14:19.097Z,14.03
2022-10-20T18:16:47.261Z,14.01
2022-10-20T18:19:18.765Z,14.00
2022-10-20T18:21:47.343Z,13.98
2022-10-20T18:25:30.540Z,13.96
2022-10-20T18:27:57.867Z,13.94
2022-10-20T18:30:25.208Z,13.94
2022-10-20T18:32:52.661Z,13.95
2022-10-20T18:37:57.346Z,13.95
2022-10-20T18:40:24.813Z,13.95
2022-10-20T18:42:52.175Z,13.96
2022-10-20T18:45:22.431Z,13.96
2022-10-20T18:47:53.019Z,13.97
2022-10-20T18:50:20.750Z,13.99
2022-10-20T18:52:48.094Z,14.00
2022-10-20T18:55:15.504Z,14.01
2022-10-20T18:57:42.897Z,14.02
2022-10-20T19:00:11.229Z,14.03
2022-10-20T19:02:38.713Z,14.05
2022-10-20T19:05:06.701Z,14.07
2022-10-20T19:07:35.056Z,14.08
2022-10-20T19:10:02.416Z,14.09
2022-10-20T19:12:29.776Z,14.09
2022-10-20T19:14:58.187Z,14.10
2022-10-20T19:17:25.627Z,14.12
2022-10-20T19:19:54.169Z,14.12
2022-10-20T19:22:25.584Z,14.13
2022-10-20T19:24:55.909Z,14.14
2022-10-20T19:27:27.388Z,14.14
2022-10-20T19:29:56.008Z,14.12
2022-10-20T19:32:23.407Z,14.13
2022-10-20T19:34:51.043Z,14.12
2022-10-20T19:37:18.375Z,14.12
2022-10-20T19:39:45.708Z,14.11
2022-10-20T19:42:13.687Z,14.09
2022-10-20T19:44:41.189Z,14.08
2022-10-20T19:47:09.443Z,14.07
2022-10-20T19:49:37.680Z,14.05
2022-10-20T19:52:07.136Z,14.04
2022-10-20T19:54:34.988Z,14.03
2022-10-20T19:57:02.345Z,14.00
2022-10-20T19:59:29.724Z,13.99
2022-10-20T20:01:57.110Z,13.98
2022-10-20T20:04:24.552Z,13.97
2022-10-20T20:06:58.390Z,13.95
2022-10-20T20:09:29.885Z,13.93
2022-10-20T20:12:12.845Z,13.92
2022-10-20T20:14:40.256Z,13.89
2022-10-20T20:17:10.197Z,13.86
2022-10-20T20:19:48.705Z,13.84
2022-10-20T20:22:16.078Z,13.83
2022-10-20T20:24:43.468Z,13.82
2022-10-20T20:27:10.862Z,13.79
2022-10-20T20:29:38.209Z,13.78
2022-10-20T20:32:11.879Z,13.76
2022-10-20T20:34:56.694Z,13.73
2022-10-20T20:37:33.934Z,13.71
2022-10-20T20:40:04.070Z,13.67
2022-10-20T20:42:31.746Z,13.66
2022-10-20T20:44:59.138Z,13.64
2022-10-20T20:47:39.352Z,13.63
2022-10-20T20:50:13.307Z,13.59
2022-10-20T20:52:51.226Z,13.59
2022-10-20T20:55:36.134Z,13.57
2022-10-20T20:58:17.234Z,13.54
2022-10-20T21:00:44.692Z,13.51
2022-10-20T21:03:12.198Z,13.52
2022-10-20T21:05:39.532Z,13.51
2022-10-20T21:08:06.887Z,13.51
2022-10-20T21:10:37.276Z,13.50
2022-10-20T21:13:04.616Z,13.49
2022-10-20T21:15:33.181Z,13.47
2022-10-20T21:18:00.566Z,13.45
2022-10-20T21:20:28.453Z,13.44
2022-10-20T21:22:55.873Z,13.44
2022-10-20T21:25:23.248Z,13.45
2022-10-20T21:27:50.661Z,13.45
2022-10-20T21:30:18.108Z,13.45
2022-10-20T21:32:45.495Z,13.45
2022-10-20T21:35:12.824Z,13.44
2022-10-20T21:37:40.164Z,13.44
2022-10-20T21:40:08.367Z,13.43
2022-10-20T21:42:35.944Z,13.43
2022-10-20T21:45:03.972Z,13.44
2022-10-20T21:47:31.370Z,13.43
2022-10-20T21:49:58.747Z,13.43
2022-10-20T21:52:26.126Z,13.42
2022-10-20T21:54:53.521Z,13.41
2022-10-20T21:57:20.859Z,13.39
2022-10-20T21:59:50.411Z,13.40
2022-10-20T22:02:17.960Z,13.38
2022-10-20T22:04:45.317Z,13.40
2022-10-20T22:07:12.698Z,13.39
2022-10-20T22:09:40.109Z,13.39
2022-10-20T22:12:07.536Z,13.42
2022-10-20T22:14:34.925Z,13.42
2022-10-20T22:17:02.408Z,13.43
2022-10-20T22:19:29.903Z,13.42
2022-10-20T22:24:30.533Z,13.43
2022-10-20T22:26:58.071Z,13.43
2022-10-20T22:29:25.399Z,13.42
2022-10-20T22:31:52.810Z,13.42
2022-10-20T22:34:21.000Z,13.43
2022-10-20T22:36:48.385Z,13.43
2022-10-20T22:39:15.723Z,13.43
2022-10-20T22:41:43.115Z,13.45
2022-10-20T22:44:10.790Z,13.45
2022-10-20T22:46:38.140Z,13.46
2022-10-20T22:49:05.625Z,13.48
2022-10-20T22:51:32.981Z,13.50
2022-10-20T22:54:00.321Z,13.50
2022-10-20T22:56:27.705Z,13.53
2022-10-20T22:58:55.328Z,13.55
2022-10-20T23:01:24.321Z,13.58
2022-10-20T23:03:52.251Z,13.59
2022-10-20T23:06:25.045Z,13.59
2022-10-20T23:08:55.341Z,13.61
2022-10-20T23:11:23.467Z,13.62
2022-10-20T23:13:51.401Z,13.63
2022-10-20T23:16:19.611Z,13.63
2022-10-20T23:18:47.932Z,13.62
2022-10-20T23:21:15.934Z,13.63
2022-10-20T23:23:44.192Z,13.63
2022-10-20T23:26:12.167Z,13.64
2022-10-20T23:28:39.519Z,13.64
2022-10-20T23:31:09.741Z,13.63
2022-10-20T23:33:39.101Z,13.63
2022-10-20T23:36:07.291Z,13.62
2022-10-20T23:38:35.240Z,13.62
2022-10-20T23:41:03.288Z,13.63
2022-10-20T23:43:31.209Z,13.64
2022-10-20T23:45:59.035Z,13.64
2022-10-20T23:48:26.872Z,13.65
2022-10-20T23:50:54.397Z,13.65
2022-10-20T23:53:21.778Z,13.66
2022-10-20T23:55:50.764Z,13.67
2022-10-20T23:58:22.606Z,13.68
